createdAt,value
2023-01-26T00:04:57.825Z,95947.00
2023-01-26T00:10:25.736Z,95938.00
2023-01-26T00:15:53.540Z,95928.00
2023-01-26T00:21:23.506Z,95922.00
2023-01-26T00:26:51.307Z,95916.00
2023-01-26T00:32:19.704Z,95916.00
2023-01-26T00:37:49.111Z,95907.00
2023-01-26T00:43:17.050Z,95916.00
2023-01-26T00:48:45.046Z,95919.00
2023-01-26T00:54:13.048Z,95913.00
2023-01-26T00:59:40.787Z,95907.00
2023-01-26T01:05:09.889Z,95897.00
2023-01-26T01:10:37.667Z,95899.00
2023-01-26T01:16:11.708Z,95906.00
2023-01-26T01:21:39.606Z,95895.00
2023-01-26T01:27:07.505Z,95897.00
2023-01-26T01:32:37.248Z,95907.00
2023-01-26T01:38:05.168Z,95900.00
2023-01-26T01:43:33.428Z,95899.00
2023-01-26T01:49:40.662Z,95908.00
2023-01-26T01:55:13.569Z,95901.00
2023-01-26T02:00:41.491Z,95883.00
2023-01-26T02:06:30.316Z,95888.00
2023-01-26T02:12:00.363Z,95874.00
2023-01-26T02:17:28.197Z,95882.00
2023-01-26T02:23:17.510Z,95872.00
2023-01-26T02:28:47.600Z,95861.00
2023-01-26T02:34:17.643Z,95852.00
2023-01-26T02:39:56.008Z,95844.00
2023-01-26T02:45:28.287Z,95846.00
2023-01-26T02:50:56.376Z,95845.00
2023-01-26T02:56:24.268Z,95834.00
2023-01-26T03:01:53.460Z,95826.00
2023-01-26T03:07:21.393Z,95809.00
2023-01-26T03:12:49.248Z,95809.00
2023-01-26T03:18:39.597Z,95801.00
2023-01-26T03:24:31.601Z,95800.00
2023-01-26T03:30:01.403Z,95799.00
2023-01-26T03:35:29.450Z,95794.00
2023-01-26T03:41:19.519Z,95810.00
2023-01-26T03:47:05.730Z,95804.00
2023-01-26T03:52:52.807Z,95804.00
2023-01-26T03:58:20.790Z,95803.00
2023-01-26T04:04:15.423Z,95801.00
2023-01-26T04:09:44.762Z,95788.00
2023-01-26T04:15:32.018Z,95793.00
2023-01-26T04:21:24.196Z,95789.00
2023-01-26T04:26:53.061Z,95784.00
2023-01-26T04:32:25.267Z,95785.00
2023-01-26T04:37:53.215Z,95785.00
2023-01-26T04:43:21.259Z,95775.00
2023-01-26T04:48:49.294Z,95777.00
2023-01-26T04:54:18.553Z,95775.00
2023-01-26T04:59:46.711Z,95777.00
2023-01-26T05:05:14.741Z,95778.00
2023-01-26T05:10:43.647Z,95777.00
2023-01-26T05:16:27.104Z,95773.00
2023-01-26T05:22:04.981Z,95778.00
2023-01-26T05:27:35.517Z,95776.00
2023-01-26T05:33:06.432Z,95772.00
2023-01-26T05:38:35.509Z,95773.00
2023-01-26T05:44:04.103Z,95779.00
2023-01-26T05:49:41.628Z,95772.00
2023-01-26T05:55:11.410Z,95777.00
2023-01-26T06:00:39.482Z,95775.00
2023-01-26T06:06:12.857Z,95785.00
2023-01-26T06:11:49.568Z,95776.00
2023-01-26T06:17:24.047Z,95775.00
2023-01-26T06:23:01.655Z,95791.00
2023-01-26T06:28:32.673Z,95783.00
2023-01-26T06:34:01.025Z,95795.00
2023-01-26T06:39:29.091Z,95785.00
2023-01-26T06:44:59.549Z,95785.00
2023-01-26T06:50:33.482Z,95774.00
2023-01-26T06:56:02.203Z,95779.00
2023-01-26T07:01:42.221Z,95766.00
2023-01-26T07:07:10.081Z,95759.00
2023-01-26T07:12:44.771Z,95775.00
2023-01-26T07:18:12.727Z,95768.00
2023-01-26T07:23:40.694Z,95776.00
2023-01-26T07:29:08.569Z,95778.00
2023-01-26T07:34:36.863Z,95775.00
2023-01-26T07:40:06.041Z,95769.00
2023-01-26T07:45:34.638Z,95762.00
2023-01-26T07:51:04.786Z,95760.00
2023-01-26T07:56:32.928Z,95764.00
2023-01-26T08:02:00.953Z,95757.00
2023-01-26T08:07:28.860Z,95755.00
2023-01-26T08:12:57.102Z,95749.00
2023-01-26T08:18:24.961Z,95752.00
2023-01-26T08:23:54.004Z,95748.00
2023-01-26T08:29:21.999Z,95742.00
2023-01-26T08:34:51.315Z,95733.00
2023-01-26T08:40:19.488Z,95742.00
2023-01-26T08:45:48.004Z,95738.00
2023-01-26T08:51:17.092Z,95739.00
2023-01-26T08:56:45.071Z,95749.00
2023-01-26T09:02:13.049Z,95743.00
2023-01-26T09:07:41.071Z,95741.00
2023-01-26T09:13:10.385Z,95743.00
2023-01-26T09:18:38.997Z,95748.00
2023-01-26T09:24:12.882Z,95741.00
2023-01-26T09:29:41.164Z,95748.00
2023-01-26T09:35:14.136Z,95744.00
2023-01-26T09:41:21.897Z,95754.00
2023-01-26T09:47:17.739Z,95755.00
2023-01-26T09:52:55.163Z,95761.00
2023-01-26T09:58:39.960Z,95752.00
2023-01-26T10:04:36.478Z,95748.00
2023-01-26T10:10:05.054Z,95743.00
2023-01-26T10:15:43.378Z,95739.00
2023-01-26T10:21:12.917Z,95747.00
2023-01-26T10:26:42.711Z,95739.00
2023-01-26T10:32:15.661Z,95723.00
2023-01-26T10:37:44.068Z,95715.00
2023-01-26T10:43:19.367Z,95724.00
2023-01-26T10:48:54.456Z,95724.00
2023-01-26T10:54:27.753Z,95709.00
2023-01-26T11:00:09.935Z,95716.00
2023-01-26T11:05:39.578Z,95700.00
2023-01-26T11:11:24.346Z,95702.00
2023-01-26T11:17:23.254Z,95701.00
2023-01-26T11:23:29.445Z,95715.00
2023-01-26T11:29:50.360Z,95709.00
2023-01-26T11:35:39.651Z,95702.00
2023-01-26T11:41:30.331Z,95702.00
2023-01-26T11:47:35.448Z,95686.00
2023-01-26T11:53:57.632Z,95697.00
2023-01-26T12:00:02.115Z,95686.00
2023-01-26T12:05:48.694Z,95676.00
2023-01-26T12:11:38.475Z,95672.00
2023-01-26T12:17:19.175Z,95670.00
2023-01-26T12:23:17.157Z,95653.00
2023-01-26T12:29:19.992Z,95659.00
2023-01-26T12:34:48.041Z,95656.00
2023-01-26T12:40:21.782Z,95664.00
2023-01-26T12:45:55.107Z,95658.00
2023-01-26T12:51:32.322Z,95644.00
2023-01-26T12:57:04.748Z,95655.00
2023-01-26T13:02:36.141Z,95658.00
2023-01-26T13:08:32.688Z,95656.00
2023-01-26T13:14:02.224Z,95646.00
2023-01-26T13:19:38.158Z,95651.00
2023-01-26T13:25:34.751Z,95647.00
2023-01-26T13:31:07.795Z,95643.00
2023-01-26T13:36:51.872Z,95640.00
2023-01-26T13:42:33.334Z,95642.00
2023-01-26T13:48:15.791Z,95637.00
2023-01-26T13:54:02.320Z,95635.00
2023-01-26T13:59:34.172Z,95641.00
2023-01-26T14:05:04.680Z,95645.00
2023-01-26T14:10:32.911Z,95639.00
2023-01-26T14:16:08.107Z,95637.00
2023-01-26T14:22:00.532Z,95652.00
2023-01-26T14:27:41.633Z,95657.00
2023-01-26T14:33:17.941Z,95650.00
2023-01-26T14:38:51.892Z,95649.00
2023-01-26T14:44:20.662Z,95643.00
2023-01-26T14:50:06.485Z,95646.00
2023-01-26T14:55:36.998Z,95636.00
2023-01-26T15:01:06.148Z,95638.00
2023-01-26T15:06:34.463Z,95634.00
2023-01-26T15:12:17.284Z,95636.00
2023-01-26T15:17:48.044Z,95638.00
2023-01-26T15:23:22.857Z,95631.00
2023-01-26T15:29:11.747Z,95641.00
2023-01-26T15:34:46.200Z,95648.00
2023-01-26T15:40:29.406Z,95654.00
2023-01-26T15:46:01.424Z,95661.00
2023-01-26T15:51:32.491Z,95664.00
2023-01-26T15:57:00.463Z,95659.00
2023-01-26T16:02:31.763Z,95666.00
2023-01-26T16:08:04.971Z,95667.00
2023-01-26T16:13:34.157Z,95664.00
2023-01-26T16:19:02.430Z,95659.00
2023-01-26T16:24:32.531Z,95660.00
2023-01-26T16:30:00.615Z,95663.00
2023-01-26T16:35:32.125Z,95661.00
2023-01-26T16:41:04.594Z,95670.00
2023-01-26T16:46:33.580Z,95653.00
2023-01-26T16:52:01.811Z,95659.00
2023-01-26T16:57:30.800Z,95657.00
2023-01-26T17:03:01.814Z,95657.00
2023-01-26T17:08:34.139Z,95664.00
2023-01-26T17:14:06.167Z,95671.00
2023-01-26T17:19:34.252Z,95679.00
2023-01-26T17:25:05.495Z,95678.00
2023-01-26T17:30:34.659Z,95665.00
2023-01-26T17:36:07.339Z,95670.00
2023-01-26T17:48:07.935Z,95666.00
2023-01-26T17:53:44.245Z,95669.00
2023-01-26T17:59:25.353Z,95667.00
2023-01-26T18:05:01.399Z,95664.00
2023-01-26T18:10:49.711Z,95671.00
2023-01-26T18:16:21.997Z,95668.00
2023-01-26T18:21:51.299Z,95667.00
2023-01-26T18:27:24.179Z,95673.00
2023-01-26T18:32:53.222Z,95665.00
2023-01-26T18:38:22.719Z,95675.00
2023-01-26T18:44:05.282Z,95669.00
2023-01-26T18:49:34.026Z,95672.00
2023-01-26T18:55:02.168Z,95661.00
2023-01-26T19:00:43.021Z,95670.00
2023-01-26T19:06:26.148Z,95678.00
2023-01-26T19:12:03.375Z,95678.00
2023-01-26T19:18:11.919Z,95673.00
2023-01-26T19:23:52.188Z,95672.00
2023-01-26T19:29:26.701Z,95670.00
2023-01-26T19:35:15.143Z,95669.00
2023-01-26T19:40:53.751Z,95669.00
2023-01-26T19:53:07.794Z,95672.00
2023-01-26T19:58:37.876Z,95664.00
2023-01-26T20:04:12.340Z,95663.00
2023-01-26T20:09:40.384Z,95670.00
2023-01-26T20:15:10.523Z,95661.00
2023-01-26T20:20:41.724Z,95655.00
2023-01-26T20:26:11.462Z,95666.00
2023-01-26T20:31:39.584Z,95664.00
2023-01-26T20:37:08.777Z,95654.00
2023-01-26T20:42:36.745Z,95659.00
2023-01-26T20:48:04.906Z,95656.00
2023-01-26T20:53:32.766Z,95650.00
2023-01-26T20:59:01.582Z,95642.00
2023-01-26T21:04:41.412Z,95646.00
2023-01-26T21:10:33.332Z,95646.00
2023-01-26T21:16:01.891Z,95649.00
2023-01-26T21:21:30.071Z,95630.00
2023-01-26T21:26:57.956Z,95641.00
2023-01-26T21:32:27.085Z,95643.00
2023-01-26T21:37:55.385Z,95641.00
2023-01-26T21:43:23.297Z,95643.00
2023-01-26T21:48:52.654Z,95643.00
2023-01-26T21:54:20.914Z,95643.00
2023-01-26T21:59:49.060Z,95633.00
2023-01-26T22:05:20.130Z,95631.00
2023-01-26T22:10:55.860Z,95634.00
2023-01-26T22:16:27.401Z,95639.00
2023-01-26T22:21:55.442Z,95624.00
2023-01-26T22:27:25.482Z,95630.00
2023-01-26T22:32:53.528Z,95621.00
2023-01-26T22:38:21.491Z,95630.00
2023-01-26T22:43:55.449Z,95633.00
2023-01-26T22:49:26.841Z,95621.00
2023-01-26T22:54:54.936Z,95613.00
2023-01-26T23:00:22.855Z,95611.00
2023-01-26T23:05:50.779Z,95609.00
2023-01-26T23:11:25.349Z,95621.00
2023-01-26T23:16:57.362Z,95606.00
2023-01-26T23:22:27.139Z,95602.00
2023-01-26T23:27:56.296Z,95615.00
2023-01-26T23:33:27.636Z,95604.00
2023-01-26T23:38:55.406Z,95606.00
2023-01-26T23:44:24.324Z,95596.00
2023-01-26T23:49:54.208Z,95591.00
2023-01-26T23:55:22.363Z,95584.00
